Accueil
METAR-TAF:

METAR-TAF

Aéroports :

Aéroport de Southampton

Southampton, Angleterre

latitude: 50-54N, longitude: 001-24W, altitude: 9 m

Observation

Le bulletin a été fait il y a 44 minutes, à 19:50 UTC
Vent calme
Température 6°C
Humidité 93%
Pression 1028 hPa
Visibilité 10 km ou plus
Brouillard mince

METAR: EGHI 191950Z 00000KT 9999 MIFG NSC 06/05 Q1028

Heure: 21:34 (20:34 UTC)

Prévision

Le bulletin a été fait il y a 3 heures et 30 minutes, à 17:04 UTC
Prévision valable du 19 à 18 UTC au 19 à 22 UTC
Vent 3 kt de direction variable
Visibilité 10 km ou plus
Quelques nuages à une hauteur de 4000 ft

TAF: EGHI 191704Z 1918/1922 VRB03KT 9999 FEW040

Observations et prévisions météorologiques de plus de 4000 aéroports (messages METAR et TAF).

Les stations disponibles sont représentées par des disques jaunes et rouges sur la carte.

Passer la souris dessus pour voir le nom de la station.

Cliquer dessus pour voir les observations et prévisions météorologiques.

Pour changer de carte: cliquez sur les boutons verts avec une croix noire pour zoomer, sur le bouton vert avec un tiret pour effectuer un zoom arrière, ou sur les flèches vertes pour les cartes adjacentes.


METAR-TAF: